sensor_id;sensor_type;location;lat;lon;timestamp;temperature;humidity
3492;DHT22;1760;52.480;13.422;2024-03-29T00:00:03;10.00;99.90
3492;DHT22;1760;52.480;13.422;2024-03-29T00:02:31;10.10;99.90
3492;DHT22;1760;52.480;13.422;2024-03-29T00:04:57;10.10;99.90
3492;DHT22;1760;52.480;13.422;2024-03-29T00:07:24;10.00;99.90
3492;DHT22;1760;52.480;13.422;2024-03-29T00:09:51;10.00;99.90
3492;DHT22;1760;52.480;13.422;2024-03-29T00:12:16;10.00;99.90
3492;DHT22;1760;52.480;13.422;2024-03-29T00:14:45;10.00;99.90
3492;DHT22;1760;52.480;13.422;2024-03-29T00:17:11;10.10;99.90
3492;DHT22;1760;52.480;13.422;2024-03-29T00:19:37;10.10;99.90
3492;DHT22;1760;52.480;13.422;2024-03-29T00:22:03;10.10;99.90
3492;DHT22;1760;52.480;13.422;2024-03-29T00:24:34;10.10;99.90
3492;DHT22;1760;52.480;13.422;2024-03-29T00:27:00;10.20;99.90
3492;DHT22;1760;52.480;13.422;2024-03-29T00:29:26;10.20;99.90
3492;DHT22;1760;52.480;13.422;2024-03-29T00:31:52;10.20;99.90
3492;DHT22;1760;52.480;13.422;2024-03-29T00:34:18;10.30;99.90
3492;DHT22;1760;52.480;13.422;2024-03-29T00:36:44;10.30;99.90
3492;DHT22;1760;52.480;13.422;2024-03-29T00:39:12;10.30;99.90
3492;DHT22;1760;52.480;13.422;2024-03-29T00:41:39;10.30;99.90
3492;DHT22;1760;52.480;13.422;2024-03-29T00:44:05;10.30;99.90
3492;DHT22;1760;52.480;13.422;2024-03-29T00:46:31;10.20;99.90
3492;DHT22;1760;52.480;13.422;2024-03-29T00:48:57;10.10;99.90
3492;DHT22;1760;52.480;13.422;2024-03-29T00:51:23;10.00;99.90
3492;DHT22;1760;52.480;13.422;2024-03-29T00:53:49;9.90;99.90
3492;DHT22;1760;52.480;13.422;2024-03-29T00:56:17;9.80;99.90
3492;DHT22;1760;52.480;13.422;2024-03-29T00:58:45;9.70;99.90
3492;DHT22;1760;52.480;13.422;2024-03-29T01:01:11;9.60;99.90
3492;DHT22;1760;52.480;13.422;2024-03-29T01:03:37;9.50;99.90
3492;DHT22;1760;52.480;13.422;2024-03-29T01:06:03;9.50;99.90
3492;DHT22;1760;52.480;13.422;2024-03-29T01:08:30;9.40;99.90
3492;DHT22;1760;52.480;13.422;2024-03-29T01:10:55;9.30;99.90
3492;DHT22;1760;52.480;13.422;2024-03-29T01:13:22;9.30;99.90
3492;DHT22;1760;52.480;13.422;2024-03-29T01:15:49;9.20;99.90
3492;DHT22;1760;52.480;13.422;2024-03-29T01:18:15;9.10;99.90
3492;DHT22;1760;52.480;13.422;2024-03-29T01:20:41;9.10;99.90
3492;DHT22;1760;52.480;13.422;2024-03-29T01:23:07;9.00;99.90
3492;DHT22;1760;52.480;13.422;2024-03-29T01:25:33;8.90;99.90
3492;DHT22;1760;52.480;13.422;2024-03-29T01:27:59;9.90;99.90
3492;DHT22;1760;52.480;13.422;2024-03-29T01:30:25;9.00;99.90
3492;DHT22;1760;52.480;13.422;2024-03-29T01:32:53;8.90;99.90
3492;DHT22;1760;52.480;13.422;2024-03-29T01:35:19;8.90;99.90
3492;DHT22;1760;52.480;13.422;2024-03-29T01:37:45;8.80;99.90
3492;DHT22;1760;52.480;13.422;2024-03-29T01:40:12;8.80;99.90
3492;DHT22;1760;52.480;13.422;2024-03-29T01:42:38;8.80;99.90
3492;DHT22;1760;52.480;13.422;2024-03-29T01:45:04;8.70;99.90
3492;DHT22;1760;52.480;13.422;2024-03-29T01:47:31;8.70;99.90
3492;DHT22;1760;52.480;13.422;2024-03-29T01:50:00;8.60;99.90
3492;DHT22;1760;52.480;13.422;2024-03-29T01:52:27;8.60;99.90
3492;DHT22;1760;52.480;13.422;2024-03-29T01:54:55;8.60;99.90
3492;DHT22;1760;52.480;13.422;2024-03-29T01:57:22;8.60;99.90
3492;DHT22;1760;52.480;13.422;2024-03-29T01:59:50;8.60;99.90
3492;DHT22;1760;52.480;13.422;2024-03-29T02:02:17;8.60;99.90
3492;DHT22;1760;52.480;13.422;2024-03-29T02:04:45;8.60;99.90
3492;DHT22;1760;52.480;13.422;2024-03-29T02:07:13;8.60;99.90
3492;DHT22;1760;52.480;13.422;2024-03-29T02:09:41;8.60;99.90
3492;DHT22;1760;52.480;13.422;2024-03-29T02:12:08;8.60;99.90
3492;DHT22;1760;52.480;13.422;2024-03-29T02:14:34;8.50;99.90
3492;DHT22;1760;52.480;13.422;2024-03-29T02:17:01;8.50;99.90
3492;DHT22;1760;52.480;13.422;2024-03-29T02:19:28;8.60;99.90
3492;DHT22;1760;52.480;13.422;2024-03-29T02:21:59;8.50;99.90
3492;DHT22;1760;52.480;13.422;2024-03-29T02:24:28;8.60;99.90
3492;DHT22;1760;52.480;13.422;2024-03-29T02:26:56;8.50;99.90
3492;DHT22;1760;52.480;13.422;2024-03-29T02:29:23;8.50;99.90
3492;DHT22;1760;52.480;13.422;2024-03-29T02:31:50;8.40;99.90
3492;DHT22;1760;52.480;13.422;2024-03-29T02:34:17;8.40;99.90
3492;DHT22;1760;52.480;13.422;2024-03-29T02:36:45;8.40;99.90
3492;DHT22;1760;52.480;13.422;2024-03-29T02:39:11;8.40;99.90
3492;DHT22;1760;52.480;13.422;2024-03-29T02:41:40;8.30;99.90
3492;DHT22;1760;52.480;13.422;2024-03-29T02:44:07;8.30;99.90
3492;DHT22;1760;52.480;13.422;2024-03-29T02:46:36;8.10;99.90
3492;DHT22;1760;52.480;13.422;2024-03-29T02:49:03;8.30;99.90
3492;DHT22;1760;52.480;13.422;2024-03-29T02:51:29;8.30;99.90
3492;DHT22;1760;52.480;13.422;2024-03-29T02:53:56;8.30;99.90
3492;DHT22;1760;52.480;13.422;2024-03-29T02:56:22;8.30;99.90
3492;DHT22;1760;52.480;13.422;2024-03-29T02:58:51;8.30;99.90
3492;DHT22;1760;52.480;13.422;2024-03-29T03:01:22;8.30;99.90
3492;DHT22;1760;52.480;13.422;2024-03-29T03:03:52;8.30;99.90
3492;DHT22;1760;52.480;13.422;2024-03-29T03:06:18;8.30;99.90
3492;DHT22;1760;52.480;13.422;2024-03-29T03:08:47;8.30;99.90
3492;DHT22;1760;52.480;13.422;2024-03-29T03:11:37;8.20;99.90
3492;DHT22;1760;52.480;13.422;2024-03-29T03:14:05;8.20;99.90
3492;DHT22;1760;52.480;13.422;2024-03-29T03:16:31;8.10;99.90
3492;DHT22;1760;52.480;13.422;2024-03-29T03:18:58;8.10;99.90
3492;DHT22;1760;52.480;13.422;2024-03-29T03:21:25;8.10;99.90
3492;DHT22;1760;52.480;13.422;2024-03-29T03:23:52;8.10;99.90
3492;DHT22;1760;52.480;13.422;2024-03-29T03:26:21;8.10;99.90
3492;DHT22;1760;52.480;13.422;2024-03-29T03:28:48;8.10;99.90
3492;DHT22;1760;52.480;13.422;2024-03-29T03:31:15;8.00;99.90
3492;DHT22;1760;52.480;13.422;2024-03-29T03:33:42;8.00;99.90
3492;DHT22;1760;52.480;13.422;2024-03-29T03:36:08;7.90;99.90
3492;DHT22;1760;52.480;13.422;2024-03-29T03:38:35;7.90;99.90
3492;DHT22;1760;52.480;13.422;2024-03-29T03:41:02;7.90;99.90
3492;DHT22;1760;52.480;13.422;2024-03-29T03:43:29;7.90;99.90
3492;DHT22;1760;52.480;13.422;2024-03-29T03:46:00;7.90;99.90
3492;DHT22;1760;52.480;13.422;2024-03-29T03:48:29;7.90;99.90
3492;DHT22;1760;52.480;13.422;2024-03-29T03:50:55;7.80;99.90
3492;DHT22;1760;52.480;13.422;2024-03-29T03:53:21;7.70;99.90
3492;DHT22;1760;52.480;13.422;2024-03-29T03:55:47;7.70;99.90
3492;DHT22;1760;52.480;13.422;2024-03-29T03:58:14;7.70;99.90
3492;DHT22;1760;52.480;13.422;2024-03-29T04:00:43;7.70;99.90
3492;DHT22;1760;52.480;13.422;2024-03-29T04:03:10;7.70;99.90
3492;DHT22;1760;52.480;13.422;2024-03-29T04:05:39;7.70;99.90
3492;DHT22;1760;52.480;13.422;2024-03-29T04:08:06;7.60;99.90
3492;DHT22;1760;52.480;13.422;2024-03-29T04:10:32;7.70;99.90
3492;DHT22;1760;52.480;13.422;2024-03-29T04:12:59;7.70;99.90
3492;DHT22;1760;52.480;13.422;2024-03-29T04:15:24;7.70;99.90
3492;DHT22;1760;52.480;13.422;2024-03-29T04:17:51;7.60;99.90
3492;DHT22;1760;52.480;13.422;2024-03-29T04:20:17;7.70;99.90
3492;DHT22;1760;52.480;13.422;2024-03-29T04:22:46;7.70;99.90
3492;DHT22;1760;52.480;13.422;2024-03-29T04:25:12;7.70;99.90
3492;DHT22;1760;52.480;13.422;2024-03-29T04:27:40;7.70;99.90
3492;DHT22;1760;52.480;13.422;2024-03-29T04:30:07;7.70;99.90
3492;DHT22;1760;52.480;13.422;2024-03-29T04:32:34;7.60;99.90
3492;DHT22;1760;52.480;13.422;2024-03-29T04:35:00;7.60;99.90
3492;DHT22;1760;52.480;13.422;2024-03-29T04:37:27;7.70;99.90
3492;DHT22;1760;52.480;13.422;2024-03-29T04:39:55;7.70;99.90
3492;DHT22;1760;52.480;13.422;2024-03-29T04:42:22;7.70;99.90
3492;DHT22;1760;52.480;13.422;2024-03-29T04:44:49;7.70;99.90
3492;DHT22;1760;52.480;13.422;2024-03-29T04:47:16;7.70;99.90
3492;DHT22;1760;52.480;13.422;2024-03-29T04:49:43;7.70;99.90
3492;DHT22;1760;52.480;13.422;2024-03-29T04:52:10;7.70;99.90
3492;DHT22;1760;52.480;13.422;2024-03-29T04:54:37;7.80;99.90
3492;DHT22;1760;52.480;13.422;2024-03-29T04:57:05;7.80;99.90
3492;DHT22;1760;52.480;13.422;2024-03-29T04:59:33;7.80;99.90
3492;DHT22;1760;52.480;13.422;2024-03-29T05:01:59;7.80;99.90
3492;DHT22;1760;52.480;13.422;2024-03-29T05:04:26;7.80;99.90
3492;DHT22;1760;52.480;13.422;2024-03-29T05:06:54;7.80;99.90
3492;DHT22;1760;52.480;13.422;2024-03-29T05:09:21;7.70;99.90
3492;DHT22;1760;52.480;13.422;2024-03-29T05:11:48;7.70;99.90
3492;DHT22;1760;52.480;13.422;2024-03-29T05:14:17;7.70;99.90
3492;DHT22;1760;52.480;13.422;2024-03-29T05:16:45;7.60;99.90
3492;DHT22;1760;52.480;13.422;2024-03-29T05:19:12;7.70;99.90
3492;DHT22;1760;52.480;13.422;2024-03-29T05:21:39;7.70;99.90
3492;DHT22;1760;52.480;13.422;2024-03-29T05:24:06;7.70;99.90
3492;DHT22;1760;52.480;13.422;2024-03-29T05:26:34;7.70;99.90
3492;DHT22;1760;52.480;13.422;2024-03-29T05:29:01;7.70;99.90
3492;DHT22;1760;52.480;13.422;2024-03-29T05:31:33;7.80;99.90
3492;DHT22;1760;52.480;13.422;2024-03-29T05:34:00;7.80;99.90
3492;DHT22;1760;52.480;13.422;2024-03-29T05:36:27;7.80;99.90
3492;DHT22;1760;52.480;13.422;2024-03-29T05:38:59;7.80;99.90
3492;DHT22;1760;52.480;13.422;2024-03-29T05:41:29;9.20;99.90
3492;DHT22;1760;52.480;13.422;2024-03-29T05:43:57;7.80;99.90
3492;DHT22;1760;52.480;13.422;2024-03-29T05:46:24;7.90;99.90
3492;DHT22;1760;52.480;13.422;2024-03-29T05:48:52;8.00;99.90
3492;DHT22;1760;52.480;13.422;2024-03-29T05:51:19;8.10;99.90
3492;DHT22;1760;52.480;13.422;2024-03-29T05:53:46;8.10;99.90
3492;DHT22;1760;52.480;13.422;2024-03-29T05:56:13;8.20;99.90
3492;DHT22;1760;52.480;13.422;2024-03-29T05:58:40;8.20;99.90
3492;DHT22;1760;52.480;13.422;2024-03-29T06:01:09;8.20;99.90
3492;DHT22;1760;52.480;13.422;2024-03-29T06:03:36;8.20;99.90
3492;DHT22;1760;52.480;13.422;2024-03-29T06:06:05;8.20;99.90
3492;DHT22;1760;52.480;13.422;2024-03-29T06:08:32;8.20;99.90
3492;DHT22;1760;52.480;13.422;2024-03-29T06:10:59;8.20;99.90
3492;DHT22;1760;52.480;13.422;2024-03-29T06:13:26;8.30;99.90
3492;DHT22;1760;52.480;13.422;2024-03-29T06:16:25;8.30;99.90
3492;DHT22;1760;52.480;13.422;2024-03-29T06:19:09;8.30;99.90
3492;DHT22;1760;52.480;13.422;2024-03-29T06:21:38;8.40;99.90
3492;DHT22;1760;52.480;13.422;2024-03-29T06:24:05;8.30;99.90
3492;DHT22;1760;52.480;13.422;2024-03-29T06:26:33;8.40;99.90
3492;DHT22;1760;52.480;13.422;2024-03-29T06:29:00;8.50;99.90
3492;DHT22;1760;52.480;13.422;2024-03-29T06:31:27;8.50;99.90
3492;DHT22;1760;52.480;13.422;2024-03-29T06:33:54;8.60;99.90
3492;DHT22;1760;52.480;13.422;2024-03-29T06:36:21;8.70;99.90
3492;DHT22;1760;52.480;13.422;2024-03-29T06:38:49;8.70;99.90
3492;DHT22;1760;52.480;13.422;2024-03-29T06:41:17;8.90;99.90
3492;DHT22;1760;52.480;13.422;2024-03-29T06:43:44;8.90;99.90
3492;DHT22;1760;52.480;13.422;2024-03-29T06:46:11;9.00;99.90
3492;DHT22;1760;52.480;13.422;2024-03-29T06:48:38;9.00;99.90
3492;DHT22;1760;52.480;13.422;2024-03-29T06:51:05;9.00;99.90
3492;DHT22;1760;52.480;13.422;2024-03-29T06:53:32;9.00;99.90
3492;DHT22;1760;52.480;13.422;2024-03-29T06:56:01;9.10;99.90
3492;DHT22;1760;52.480;13.422;2024-03-29T06:58:28;9.10;99.90
3492;DHT22;1760;52.480;13.422;2024-03-29T07:00:57;9.20;99.90
3492;DHT22;1760;52.480;13.422;2024-03-29T07:03:26;9.30;99.90
3492;DHT22;1760;52.480;13.422;2024-03-29T07:05:53;9.40;99.90
3492;DHT22;1760;52.480;13.422;2024-03-29T07:08:20;9.40;99.90
3492;DHT22;1760;52.480;13.422;2024-03-29T07:10:49;9.40;99.90
3492;DHT22;1760;52.480;13.422;2024-03-29T07:13:28;9.50;99.90
3492;DHT22;1760;52.480;13.422;2024-03-29T07:15:56;9.60;99.90
3492;DHT22;1760;52.480;13.422;2024-03-29T07:18:23;9.70;99.90
3492;DHT22;1760;52.480;13.422;2024-03-29T07:20:50;9.80;99.90
3492;DHT22;1760;52.480;13.422;2024-03-29T07:23:18;9.90;99.90
3492;DHT22;1760;52.480;13.422;2024-03-29T07:26:01;10.00;99.90
3492;DHT22;1760;52.480;13.422;2024-03-29T07:28:30;10.20;99.90
3492;DHT22;1760;52.480;13.422;2024-03-29T07:31:05;10.00;99.90
3492;DHT22;1760;52.480;13.422;2024-03-29T07:33:36;10.00;99.90
3492;DHT22;1760;52.480;13.422;2024-03-29T07:36:04;10.10;99.90
3492;DHT22;1760;52.480;13.422;2024-03-29T07:38:33;10.20;99.90
3492;DHT22;1760;52.480;13.422;2024-03-29T07:41:03;10.20;99.90
3492;DHT22;1760;52.480;13.422;2024-03-29T07:43:39;10.20;99.90
3492;DHT22;1760;52.480;13.422;2024-03-29T07:46:10;10.30;99.90
3492;DHT22;1760;52.480;13.422;2024-03-29T07:48:51;10.40;99.90
3492;DHT22;1760;52.480;13.422;2024-03-29T07:51:18;10.70;99.90
3492;DHT22;1760;52.480;13.422;2024-03-29T07:53:45;10.50;99.90
3492;DHT22;1760;52.480;13.422;2024-03-29T07:56:15;10.60;99.90
3492;DHT22;1760;52.480;13.422;2024-03-29T07:58:43;10.60;99.90
3492;DHT22;1760;52.480;13.422;2024-03-29T08:01:17;10.60;99.90
3492;DHT22;1760;52.480;13.422;2024-03-29T08:03:44;10.70;99.90
3492;DHT22;1760;52.480;13.422;2024-03-29T08:06:13;10.70;99.90
3492;DHT22;1760;52.480;13.422;2024-03-29T08:08:55;10.80;99.90
3492;DHT22;1760;52.480;13.422;2024-03-29T08:11:22;10.90;99.90
3492;DHT22;1760;52.480;13.422;2024-03-29T08:13:50;11.00;99.90
3492;DHT22;1760;52.480;13.422;2024-03-29T08:16:17;11.10;99.90
3492;DHT22;1760;52.480;13.422;2024-03-29T08:18:47;11.10;99.90
3492;DHT22;1760;52.480;13.422;2024-03-29T08:21:14;11.10;99.90
3492;DHT22;1760;52.480;13.422;2024-03-29T08:23:41;11.20;99.90
3492;DHT22;1760;52.480;13.422;2024-03-29T08:26:12;11.20;99.90
3492;DHT22;1760;52.480;13.422;2024-03-29T08:28:39;11.30;99.90
3492;DHT22;1760;52.480;13.422;2024-03-29T08:31:10;11.40;99.90
3492;DHT22;1760;52.480;13.422;2024-03-29T08:33:37;11.50;99.90
3492;DHT22;1760;52.480;13.422;2024-03-29T08:36:05;11.50;99.90
3492;DHT22;1760;52.480;13.422;2024-03-29T08:38:37;11.50;99.90
3492;DHT22;1760;52.480;13.422;2024-03-29T08:41:06;11.90;99.90
3492;DHT22;1760;52.480;13.422;2024-03-29T08:43:33;11.60;99.90
3492;DHT22;1760;52.480;13.422;2024-03-29T08:46:00;11.70;99.90
3492;DHT22;1760;52.480;13.422;2024-03-29T08:48:29;11.80;99.90
3492;DHT22;1760;52.480;13.422;2024-03-29T08:50:56;11.90;99.90
3492;DHT22;1760;52.480;13.422;2024-03-29T08:53:23;12.10;99.90
3492;DHT22;1760;52.480;13.422;2024-03-29T08:55:52;12.20;99.90
3492;DHT22;1760;52.480;13.422;2024-03-29T08:58:19;12.30;99.90
3492;DHT22;1760;52.480;13.422;2024-03-29T09:00:53;12.30;99.90
3492;DHT22;1760;52.480;13.422;2024-03-29T09:03:21;12.30;99.90
3492;DHT22;1760;52.480;13.422;2024-03-29T09:05:51;12.30;99.90
3492;DHT22;1760;52.480;13.422;2024-03-29T09:08:22;12.30;99.90
3492;DHT22;1760;52.480;13.422;2024-03-29T09:10:53;12.30;99.90
3492;DHT22;1760;52.480;13.422;2024-03-29T09:13:20;12.80;99.90
3492;DHT22;1760;52.480;13.422;2024-03-29T09:15:47;13.80;99.90
3492;DHT22;1760;52.480;13.422;2024-03-29T09:18:14;14.00;99.90
3492;DHT22;1760;52.480;13.422;2024-03-29T09:23:39;14.10;99.90
3492;DHT22;1760;52.480;13.422;2024-03-29T09:26:07;14.20;99.90
3492;DHT22;1760;52.480;13.422;2024-03-29T09:28:34;14.20;99.90
3492;DHT22;1760;52.480;13.422;2024-03-29T09:31:02;14.10;99.90
3492;DHT22;1760;52.480;13.422;2024-03-29T09:33:29;14.10;99.90
3492;DHT22;1760;52.480;13.422;2024-03-29T09:35:56;14.10;99.90
3492;DHT22;1760;52.480;13.422;2024-03-29T09:38:24;14.10;99.90
3492;DHT22;1760;52.480;13.422;2024-03-29T09:40:57;14.10;99.90
3492;DHT22;1760;52.480;13.422;2024-03-29T09:43:28;14.10;99.90
3492;DHT22;1760;52.480;13.422;2024-03-29T09:45:55;14.00;99.90
3492;DHT22;1760;52.480;13.422;2024-03-29T09:48:23;14.00;99.90
3492;DHT22;1760;52.480;13.422;2024-03-29T09:50:50;13.90;99.90
3492;DHT22;1760;52.480;13.422;2024-03-29T09:53:20;13.80;99.90
3492;DHT22;1760;52.480;13.422;2024-03-29T09:55:48;13.80;99.90
3492;DHT22;1760;52.480;13.422;2024-03-29T09:58:16;13.70;99.90
3492;DHT22;1760;52.480;13.422;2024-03-29T10:00:43;13.70;99.90
3492;DHT22;1760;52.480;13.422;2024-03-29T10:03:10;13.80;99.90
3492;DHT22;1760;52.480;13.422;2024-03-29T10:05:38;14.90;99.90
3492;DHT22;1760;52.480;13.422;2024-03-29T10:08:06;13.80;99.90
3492;DHT22;1760;52.480;13.422;2024-03-29T10:10:33;13.90;99.90
3492;DHT22;1760;52.480;13.422;2024-03-29T10:13:01;13.80;99.90
3492;DHT22;1760;52.480;13.422;2024-03-29T10:15:29;13.80;99.90
3492;DHT22;1760;52.480;13.422;2024-03-29T10:17:59;13.80;99.90
3492;DHT22;1760;52.480;13.422;2024-03-29T10:20:26;13.80;99.90
3492;DHT22;1760;52.480;13.422;2024-03-29T10:22:53;13.70;99.90
3492;DHT22;1760;52.480;13.422;2024-03-29T10:25:21;13.60;99.90
3492;DHT22;1760;52.480;13.422;2024-03-29T10:27:49;13.30;99.90
3492;DHT22;1760;52.480;13.422;2024-03-29T10:30:16;13.00;99.90
3492;DHT22;1760;52.480;13.422;2024-03-29T10:32:46;12.80;99.90
3492;DHT22;1760;52.480;13.422;2024-03-29T10:35:13;12.80;99.90
3492;DHT22;1760;52.480;13.422;2024-03-29T10:37:42;12.80;99.90
3492;DHT22;1760;52.480;13.422;2024-03-29T10:40:10;12.70;99.90
3492;DHT22;1760;52.480;13.422;2024-03-29T10:42:41;12.50;99.90
3492;DHT22;1760;52.480;13.422;2024-03-29T10:45:08;12.50;99.90
3492;DHT22;1760;52.480;13.422;2024-03-29T10:47:36;12.50;99.90
3492;DHT22;1760;52.480;13.422;2024-03-29T10:50:05;12.60;99.90
3492;DHT22;1760;52.480;13.422;2024-03-29T10:52:34;12.60;99.90
3492;DHT22;1760;52.480;13.422;2024-03-29T10:55:01;12.50;99.90
3492;DHT22;1760;52.480;13.422;2024-03-29T10:57:28;12.50;99.90
3492;DHT22;1760;52.480;13.422;2024-03-29T11:00:02;12.50;99.90
3492;DHT22;1760;52.480;13.422;2024-03-29T11:02:35;12.50;99.90
3492;DHT22;1760;52.480;13.422;2024-03-29T11:05:11;12.60;99.90
3492;DHT22;1760;52.480;13.422;2024-03-29T11:07:40;12.70;99.90
3492;DHT22;1760;52.480;13.422;2024-03-29T11:10:12;12.90;99.90
3492;DHT22;1760;52.480;13.422;2024-03-29T11:12:53;13.20;99.90
3492;DHT22;1760;52.480;13.422;2024-03-29T11:15:28;13.40;99.90
3492;DHT22;1760;52.480;13.422;2024-03-29T11:17:55;13.70;99.90
3492;DHT22;1760;52.480;13.422;2024-03-29T11:20:25;14.00;99.90
3492;DHT22;1760;52.480;13.422;2024-03-29T11:23:02;14.30;99.90
3492;DHT22;1760;52.480;13.422;2024-03-29T11:25:41;14.40;99.90
3492;DHT22;1760;52.480;13.422;2024-03-29T11:28:10;14.40;99.90
3492;DHT22;1760;52.480;13.422;2024-03-29T11:30:43;14.50;99.90
3492;DHT22;1760;52.480;13.422;2024-03-29T11:33:31;14.60;99.90
3492;DHT22;1760;52.480;13.422;2024-03-29T11:36:05;14.60;99.90
3492;DHT22;1760;52.480;13.422;2024-03-29T11:38:33;14.50;99.90
3492;DHT22;1760;52.480;13.422;2024-03-29T11:41:04;14.30;99.90
3492;DHT22;1760;52.480;13.422;2024-03-29T11:43:32;14.20;99.90
3492;DHT22;1760;52.480;13.422;2024-03-29T11:45:59;14.00;99.90
3492;DHT22;1760;52.480;13.422;2024-03-29T11:48:28;14.00;99.90
3492;DHT22;1760;52.480;13.422;2024-03-29T11:50:56;13.90;99.90
3492;DHT22;1760;52.480;13.422;2024-03-29T11:53:25;13.90;99.90
3492;DHT22;1760;52.480;13.422;2024-03-29T11:55:53;13.70;99.90
3492;DHT22;1760;52.480;13.422;2024-03-29T11:58:21;13.70;99.90
3492;DHT22;1760;52.480;13.422;2024-03-29T12:00:48;13.60;99.90
3492;DHT22;1760;52.480;13.422;2024-03-29T12:03:16;13.60;99.90
3492;DHT22;1760;52.480;13.422;2024-03-29T12:05:43;13.60;99.90
3492;DHT22;1760;52.480;13.422;2024-03-29T12:08:10;13.60;99.90
3492;DHT22;1760;52.480;13.422;2024-03-29T12:10:39;13.50;99.90
3492;DHT22;1760;52.480;13.422;2024-03-29T12:13:06;13.50;99.90
3492;DHT22;1760;52.480;13.422;2024-03-29T12:15:34;13.40;99.90
3492;DHT22;1760;52.480;13.422;2024-03-29T12:18:02;13.30;99.90
3492;DHT22;1760;52.480;13.422;2024-03-29T12:20:30;13.30;99.90
3492;DHT22;1760;52.480;13.422;2024-03-29T12:22:59;13.30;99.90
3492;DHT22;1760;52.480;13.422;2024-03-29T12:25:26;13.40;99.90
3492;DHT22;1760;52.480;13.422;2024-03-29T12:27:55;13.50;99.90
3492;DHT22;1760;52.480;13.422;2024-03-29T12:30:22;13.60;99.90
3492;DHT22;1760;52.480;13.422;2024-03-29T12:33:00;13.80;99.90
3492;DHT22;1760;52.480;13.422;2024-03-29T12:35:28;14.00;99.90
3492;DHT22;1760;52.480;13.422;2024-03-29T12:37:58;14.10;99.90
3492;DHT22;1760;52.480;13.422;2024-03-29T12:40:25;14.20;99.90
3492;DHT22;1760;52.480;13.422;2024-03-29T12:42:57;14.30;99.90
3492;DHT22;1760;52.480;13.422;2024-03-29T12:45:25;14.40;99.90
3492;DHT22;1760;52.480;13.422;2024-03-29T12:47:53;14.60;99.90
3492;DHT22;1760;52.480;13.422;2024-03-29T12:50:25;14.80;99.90
3492;DHT22;1760;52.480;13.422;2024-03-29T12:52:54;14.90;99.90
3492;DHT22;1760;52.480;13.422;2024-03-29T12:55:21;15.10;99.90
3492;DHT22;1760;52.480;13.422;2024-03-29T12:57:49;15.30;99.90
3492;DHT22;1760;52.480;13.422;2024-03-29T13:00:20;15.50;99.90
3492;DHT22;1760;52.480;13.422;2024-03-29T13:02:48;15.50;99.90
3492;DHT22;1760;52.480;13.422;2024-03-29T13:05:15;15.50;99.90
3492;DHT22;1760;52.480;13.422;2024-03-29T13:07:42;15.60;99.90
3492;DHT22;1760;52.480;13.422;2024-03-29T13:10:09;15.60;99.90
3492;DHT22;1760;52.480;13.422;2024-03-29T13:12:41;15.70;99.90
3492;DHT22;1760;52.480;13.422;2024-03-29T13:15:18;15.70;99.90
3492;DHT22;1760;52.480;13.422;2024-03-29T13:17:47;15.60;99.90
3492;DHT22;1760;52.480;13.422;2024-03-29T13:20:16;15.60;99.90
3492;DHT22;1760;52.480;13.422;2024-03-29T13:22:43;15.50;99.90
3492;DHT22;1760;52.480;13.422;2024-03-29T13:25:12;15.50;99.90
3492;DHT22;1760;52.480;13.422;2024-03-29T13:27:39;15.50;99.90
3492;DHT22;1760;52.480;13.422;2024-03-29T13:30:09;15.60;99.90
3492;DHT22;1760;52.480;13.422;2024-03-29T13:32:37;15.50;99.90
3492;DHT22;1760;52.480;13.422;2024-03-29T13:35:07;15.50;99.90
3492;DHT22;1760;52.480;13.422;2024-03-29T13:37:37;15.40;99.90
3492;DHT22;1760;52.480;13.422;2024-03-29T13:40:06;15.40;99.90
3492;DHT22;1760;52.480;13.422;2024-03-29T13:42:33;15.40;99.90
3492;DHT22;1760;52.480;13.422;2024-03-29T13:45:00;15.50;99.90
3492;DHT22;1760;52.480;13.422;2024-03-29T13:47:27;15.70;99.90
3492;DHT22;1760;52.480;13.422;2024-03-29T13:49:54;15.90;98.80
3492;DHT22;1760;52.480;13.422;2024-03-29T13:52:23;16.00;97.30
3492;DHT22;1760;52.480;13.422;2024-03-29T13:54:52;16.00;97.40
3492;DHT22;1760;52.480;13.422;2024-03-29T13:57:19;16.00;96.70
3492;DHT22;1760;52.480;13.422;2024-03-29T13:59:46;16.20;95.90
3492;DHT22;1760;52.480;13.422;2024-03-29T14:02:15;16.20;95.50
3492;DHT22;1760;52.480;13.422;2024-03-29T14:04:42;16.40;95.40
3492;DHT22;1760;52.480;13.422;2024-03-29T14:07:10;16.40;95.00
3492;DHT22;1760;52.480;13.422;2024-03-29T14:09:40;16.40;94.70
3492;DHT22;1760;52.480;13.422;2024-03-29T14:12:08;16.60;94.40
3492;DHT22;1760;52.480;13.422;2024-03-29T14:14:35;16.80;93.70
3492;DHT22;1760;52.480;13.422;2024-03-29T14:17:02;16.90;93.70
3492;DHT22;1760;52.480;13.422;2024-03-29T14:19:34;16.90;93.50
3492;DHT22;1760;52.480;13.422;2024-03-29T14:22:01;16.80;94.00
3492;DHT22;1760;52.480;13.422;2024-03-29T14:24:28;16.80;94.10
3492;DHT22;1760;52.480;13.422;2024-03-29T14:26:57;16.70;94.30
3492;DHT22;1760;52.480;13.422;2024-03-29T14:29:24;16.70;94.70
3492;DHT22;1760;52.480;13.422;2024-03-29T14:31:51;16.70;95.70
3492;DHT22;1760;52.480;13.422;2024-03-29T14:34:20;16.60;95.50
3492;DHT22;1760;52.480;13.422;2024-03-29T14:36:47;16.50;95.40
3492;DHT22;1760;52.480;13.422;2024-03-29T14:39:14;16.40;96.40
3492;DHT22;1760;52.480;13.422;2024-03-29T14:41:41;16.40;96.40
3492;DHT22;1760;52.480;13.422;2024-03-29T14:44:12;16.50;96.70
3492;DHT22;1760;52.480;13.422;2024-03-29T14:46:39;16.60;96.50
3492;DHT22;1760;52.480;13.422;2024-03-29T14:49:06;16.60;96.90
3492;DHT22;1760;52.480;13.422;2024-03-29T14:51:36;16.50;96.80
3492;DHT22;1760;52.480;13.422;2024-03-29T14:54:03;16.40;97.20
3492;DHT22;1760;52.480;13.422;2024-03-29T14:56:32;16.40;97.80
3492;DHT22;1760;52.480;13.422;2024-03-29T14:59:00;16.40;98.10
3492;DHT22;1760;52.480;13.422;2024-03-29T15:01:28;16.40;98.00
3492;DHT22;1760;52.480;13.422;2024-03-29T15:03:55;16.40;98.10
3492;DHT22;1760;52.480;13.422;2024-03-29T15:06:23;16.40;99.10
3492;DHT22;1760;52.480;13.422;2024-03-29T15:08:49;16.40;98.90
3492;DHT22;1760;52.480;13.422;2024-03-29T15:11:16;16.30;99.10
3492;DHT22;1760;52.480;13.422;2024-03-29T15:13:43;16.40;99.90
3492;DHT22;1760;52.480;13.422;2024-03-29T15:16:10;16.40;99.90
3492;DHT22;1760;52.480;13.422;2024-03-29T15:18:38;16.40;99.90
3492;DHT22;1760;52.480;13.422;2024-03-29T15:26:37;16.40;99.90
3492;DHT22;1760;52.480;13.422;2024-03-29T15:29:07;16.50;99.90
3492;DHT22;1760;52.480;13.422;2024-03-29T15:31:34;16.40;99.90
3492;DHT22;1760;52.480;13.422;2024-03-29T15:34:02;16.30;99.90
3492;DHT22;1760;52.480;13.422;2024-03-29T15:36:30;16.30;99.90
3492;DHT22;1760;52.480;13.422;2024-03-29T15:38:57;16.30;99.90
3492;DHT22;1760;52.480;13.422;2024-03-29T15:41:31;16.30;99.90
3492;DHT22;1760;52.480;13.422;2024-03-29T15:44:01;16.20;99.90
3492;DHT22;1760;52.480;13.422;2024-03-29T15:46:28;16.20;99.90
3492;DHT22;1760;52.480;13.422;2024-03-29T15:48:56;16.20;99.90
3492;DHT22;1760;52.480;13.422;2024-03-29T15:51:24;16.20;99.90
3492;DHT22;1760;52.480;13.422;2024-03-29T15:53:51;16.10;99.90
3492;DHT22;1760;52.480;13.422;2024-03-29T15:56:21;16.10;99.90
3492;DHT22;1760;52.480;13.422;2024-03-29T15:58:48;16.00;99.90
3492;DHT22;1760;52.480;13.422;2024-03-29T16:01:16;16.00;99.90
3492;DHT22;1760;52.480;13.422;2024-03-29T16:03:43;16.00;99.90
3492;DHT22;1760;52.480;13.422;2024-03-29T16:06:10;16.00;99.90